Aviation Digital Data Service (ADDS)

Output produced by METARs form (1954 UTC 26 July 2016)
found at http://aviationweather.gov/adds/metars/
 
KFKL 261720Z 2618/2718 32005KT P6SM SCT250 
     FM270900 00000KT 3SM BR SCT250 
     FM271200 VRB03KT P6SM SCT250 AMD LTD TO CLD VIS AND WIND